Terminal Aerodrome Forecast
Issued by NWS Norman, OK

Home | Current Version | Previous Version | Text Only | Print | Product List | Glossary On
Versions: 1 2 3 4 5 6 7 8 9 10 11 12 13 14 15 16 17 18 19 20 21 22 23 24 25 26 27 28 29 30 31 32 33 34 35 36 37
000
FTUS44 KOUN 211740
TAFOKC
TAF
KOKC 211740Z 2118/2218 17016G23KT 6SM BR OVC015
     FM220300 18013KT 3SM BR OVC007
     FM220900 19009KT 1SM BR OVC003
     FM221300 27011KT 4SM BR OVC015
     FM221500 33015KT P6SM BKN035=

USA.gov is the U.S. government's official web portal to all federal, state and local government web resources and services.